sensor_id;sensor_type;location;lat;lon;timestamp;P1;durP1;ratioP1;P2;durP2;ratioP2
67981;SDS011;64109;52.148;4.466;2022-10-30T00:01:04;7.63;;;4.55;;
67981;SDS011;64109;52.148;4.466;2022-10-30T00:03:30;10.70;;;5.07;;
67981;SDS011;64109;52.148;4.466;2022-10-30T00:05:56;12.63;;;4.72;;
67981;SDS011;64109;52.148;4.466;2022-10-30T00:08:22;10.90;;;5.28;;
67981;SDS011;64109;52.148;4.466;2022-10-30T00:10:49;9.05;;;4.68;;
67981;SDS011;64109;52.148;4.466;2022-10-30T00:13:16;12.07;;;5.03;;
67981;SDS011;64109;52.148;4.466;2022-10-30T00:15:48;8.63;;;4.88;;
67981;SDS011;64109;52.148;4.466;2022-10-30T00:18:14;15.05;;;5.15;;
67981;SDS011;64109;52.148;4.466;2022-10-30T00:20:40;8.93;;;4.70;;
67981;SDS011;64109;52.148;4.466;2022-10-30T00:23:06;8.70;;;4.72;;
67981;SDS011;64109;52.148;4.466;2022-10-30T00:25:33;9.50;;;4.93;;
67981;SDS011;64109;52.148;4.466;2022-10-30T00:28:00;8.52;;;4.28;;
67981;SDS011;64109;52.148;4.466;2022-10-30T00:30:26;8.95;;;4.07;;
67981;SDS011;64109;52.148;4.466;2022-10-30T00:32:51;9.40;;;5.45;;
67981;SDS011;64109;52.148;4.466;2022-10-30T00:35:17;9.27;;;4.47;;
67981;SDS011;64109;52.148;4.466;2022-10-30T00:37:43;11.85;;;4.00;;
67981;SDS011;64109;52.148;4.466;2022-10-30T00:40:13;9.20;;;3.75;;
67981;SDS011;64109;52.148;4.466;2022-10-30T00:42:40;13.20;;;4.25;;
67981;SDS011;64109;52.148;4.466;2022-10-30T00:45:06;9.50;;;5.35;;
67981;SDS011;64109;52.148;4.466;2022-10-30T00:47:37;8.73;;;4.20;;
67981;SDS011;64109;52.148;4.466;2022-10-30T00:50:16;8.95;;;5.47;;
67981;SDS011;64109;52.148;4.466;2022-10-30T00:52:49;8.43;;;5.35;;
67981;SDS011;64109;52.148;4.466;2022-10-30T00:55:17;13.82;;;5.60;;
67981;SDS011;64109;52.148;4.466;2022-10-30T00:57:44;12.70;;;4.97;;
67981;SDS011;64109;52.148;4.466;2022-10-30T01:00:10;10.85;;;4.75;;
67981;SDS011;64109;52.148;4.466;2022-10-30T01:02:38;9.73;;;5.88;;
67981;SDS011;64109;52.148;4.466;2022-10-30T01:05:04;9.80;;;5.05;;
67981;SDS011;64109;52.148;4.466;2022-10-30T01:07:30;10.98;;;5.25;;
67981;SDS011;64109;52.148;4.466;2022-10-30T01:09:56;9.60;;;5.13;;
67981;SDS011;64109;52.148;4.466;2022-10-30T01:12:22;9.68;;;4.88;;
67981;SDS011;64109;52.148;4.466;2022-10-30T01:14:49;11.38;;;5.85;;
67981;SDS011;64109;52.148;4.466;2022-10-30T01:25:12;8.55;;;4.32;;
67981;SDS011;64109;52.148;4.466;2022-10-30T01:27:53;9.50;;;4.85;;
67981;SDS011;64109;52.148;4.466;2022-10-30T01:30:40;9.60;;;4.75;;
67981;SDS011;64109;52.148;4.466;2022-10-30T01:35:43;9.07;;;5.22;;
67981;SDS011;64109;52.148;4.466;2022-10-30T01:38:20;11.00;;;4.82;;
67981;SDS011;64109;52.148;4.466;2022-10-30T01:40:48;10.10;;;5.22;;
67981;SDS011;64109;52.148;4.466;2022-10-30T01:43:14;8.25;;;4.88;;
67981;SDS011;64109;52.148;4.466;2022-10-30T01:55:47;8.23;;;3.95;;
67981;SDS011;64109;52.148;4.466;2022-10-30T01:58:22;8.40;;;4.28;;
67981;SDS011;64109;52.148;4.466;2022-10-30T02:00:52;7.15;;;4.95;;
67981;SDS011;64109;52.148;4.466;2022-10-30T02:03:19;8.77;;;5.30;;
67981;SDS011;64109;52.148;4.466;2022-10-30T02:05:49;8.85;;;4.65;;
67981;SDS011;64109;52.148;4.466;2022-10-30T02:08:16;8.40;;;4.45;;
67981;SDS011;64109;52.148;4.466;2022-10-30T02:10:42;9.40;;;5.55;;
67981;SDS011;64109;52.148;4.466;2022-10-30T02:13:08;8.68;;;4.60;;
67981;SDS011;64109;52.148;4.466;2022-10-30T02:15:34;7.82;;;4.35;;
67981;SDS011;64109;52.148;4.466;2022-10-30T02:18:01;10.27;;;5.18;;
67981;SDS011;64109;52.148;4.466;2022-10-30T02:20:27;9.63;;;4.95;;
67981;SDS011;64109;52.148;4.466;2022-10-30T02:22:53;6.63;;;4.80;;
67981;SDS011;64109;52.148;4.466;2022-10-30T02:25:20;10.93;;;5.05;;
67981;SDS011;64109;52.148;4.466;2022-10-30T02:27:46;7.22;;;4.22;;
67981;SDS011;64109;52.148;4.466;2022-10-30T02:30:12;9.93;;;5.28;;
67981;SDS011;64109;52.148;4.466;2022-10-30T02:32:38;9.45;;;4.85;;
67981;SDS011;64109;52.148;4.466;2022-10-30T02:35:04;9.48;;;5.38;;
67981;SDS011;64109;52.148;4.466;2022-10-30T02:37:30;7.70;;;4.88;;
67981;SDS011;64109;52.148;4.466;2022-10-30T02:39:56;8.73;;;5.07;;
67981;SDS011;64109;52.148;4.466;2022-10-30T02:42:23;7.00;;;4.60;;
67981;SDS011;64109;52.148;4.466;2022-10-30T02:44:49;6.85;;;4.43;;
67981;SDS011;64109;52.148;4.466;2022-10-30T02:47:15;7.10;;;4.70;;
67981;SDS011;64109;52.148;4.466;2022-10-30T02:49:41;8.70;;;4.50;;
67981;SDS011;64109;52.148;4.466;2022-10-30T02:52:07;10.90;;;4.82;;
67981;SDS011;64109;52.148;4.466;2022-10-30T02:54:33;7.00;;;5.07;;
67981;SDS011;64109;52.148;4.466;2022-10-30T02:56:59;11.30;;;5.45;;
67981;SDS011;64109;52.148;4.466;2022-10-30T02:59:25;7.32;;;4.32;;
67981;SDS011;64109;52.148;4.466;2022-10-30T03:01:51;5.97;;;4.32;;
67981;SDS011;64109;52.148;4.466;2022-10-30T03:04:17;10.88;;;5.35;;
67981;SDS011;64109;52.148;4.466;2022-10-30T03:06:43;8.80;;;4.78;;
67981;SDS011;64109;52.148;4.466;2022-10-30T03:09:09;10.10;;;5.05;;
67981;SDS011;64109;52.148;4.466;2022-10-30T03:11:35;8.02;;;4.32;;
67981;SDS011;64109;52.148;4.466;2022-10-30T03:14:01;11.77;;;5.15;;
67981;SDS011;64109;52.148;4.466;2022-10-30T03:16:27;9.50;;;5.28;;
67981;SDS011;64109;52.148;4.466;2022-10-30T03:18:54;7.18;;;3.63;;
67981;SDS011;64109;52.148;4.466;2022-10-30T03:21:21;10.35;;;4.53;;
67981;SDS011;64109;52.148;4.466;2022-10-30T03:23:47;8.30;;;4.53;;
67981;SDS011;64109;52.148;4.466;2022-10-30T03:26:17;8.18;;;4.97;;
67981;SDS011;64109;52.148;4.466;2022-10-30T03:28:43;10.18;;;4.90;;
67981;SDS011;64109;52.148;4.466;2022-10-30T03:31:10;12.05;;;5.43;;
67981;SDS011;64109;52.148;4.466;2022-10-30T03:33:36;6.10;;;4.03;;
67981;SDS011;64109;52.148;4.466;2022-10-30T03:36:06;9.82;;;4.88;;
67981;SDS011;64109;52.148;4.466;2022-10-30T03:38:32;8.35;;;4.40;;
67981;SDS011;64109;52.148;4.466;2022-10-30T03:40:58;10.45;;;4.55;;
67981;SDS011;64109;52.148;4.466;2022-10-30T03:43:24;13.55;;;5.55;;
67981;SDS011;64109;52.148;4.466;2022-10-30T03:45:51;10.88;;;5.22;;
67981;SDS011;64109;52.148;4.466;2022-10-30T03:48:18;5.95;;;4.70;;
67981;SDS011;64109;52.148;4.466;2022-10-30T03:50:44;7.22;;;5.30;;
67981;SDS011;64109;52.148;4.466;2022-10-30T03:53:10;8.23;;;4.68;;
67981;SDS011;64109;52.148;4.466;2022-10-30T03:55:36;8.20;;;4.45;;
67981;SDS011;64109;52.148;4.466;2022-10-30T03:58:03;6.18;;;4.28;;
67981;SDS011;64109;52.148;4.466;2022-10-30T04:00:29;10.43;;;4.85;;
67981;SDS011;64109;52.148;4.466;2022-10-30T04:02:55;10.70;;;5.63;;
67981;SDS011;64109;52.148;4.466;2022-10-30T04:05:21;8.55;;;5.78;;
67981;SDS011;64109;52.148;4.466;2022-10-30T04:07:48;8.73;;;4.68;;
67981;SDS011;64109;52.148;4.466;2022-10-30T04:10:19;9.00;;;4.93;;
67981;SDS011;64109;52.148;4.466;2022-10-30T04:12:45;7.97;;;4.68;;
67981;SDS011;64109;52.148;4.466;2022-10-30T04:15:11;11.05;;;4.75;;
67981;SDS011;64109;52.148;4.466;2022-10-30T04:17:37;8.90;;;5.00;;
67981;SDS011;64109;52.148;4.466;2022-10-30T04:20:03;7.32;;;3.75;;
67981;SDS011;64109;52.148;4.466;2022-10-30T04:22:29;7.63;;;4.40;;
67981;SDS011;64109;52.148;4.466;2022-10-30T04:24:55;7.10;;;4.75;;
67981;SDS011;64109;52.148;4.466;2022-10-30T04:27:21;8.27;;;5.43;;
67981;SDS011;64109;52.148;4.466;2022-10-30T04:29:47;9.35;;;4.50;;
67981;SDS011;64109;52.148;4.466;2022-10-30T04:32:13;8.27;;;4.70;;
67981;SDS011;64109;52.148;4.466;2022-10-30T04:34:39;8.40;;;3.88;;
67981;SDS011;64109;52.148;4.466;2022-10-30T04:37:05;7.53;;;4.80;;
67981;SDS011;64109;52.148;4.466;2022-10-30T04:39:31;9.02;;;3.90;;
67981;SDS011;64109;52.148;4.466;2022-10-30T04:41:57;7.75;;;5.32;;
67981;SDS011;64109;52.148;4.466;2022-10-30T04:44:23;10.48;;;4.93;;
67981;SDS011;64109;52.148;4.466;2022-10-30T04:46:49;6.97;;;4.63;;
67981;SDS011;64109;52.148;4.466;2022-10-30T04:49:16;9.80;;;5.30;;
67981;SDS011;64109;52.148;4.466;2022-10-30T04:51:42;8.52;;;4.35;;
67981;SDS011;64109;52.148;4.466;2022-10-30T04:54:10;6.63;;;4.50;;
67981;SDS011;64109;52.148;4.466;2022-10-30T04:56:36;7.28;;;4.47;;
67981;SDS011;64109;52.148;4.466;2022-10-30T04:59:02;8.02;;;4.45;;
67981;SDS011;64109;52.148;4.466;2022-10-30T05:01:28;9.48;;;5.35;;
67981;SDS011;64109;52.148;4.466;2022-10-30T05:03:54;6.47;;;4.60;;
67981;SDS011;64109;52.148;4.466;2022-10-30T05:06:26;9.32;;;4.55;;
67981;SDS011;64109;52.148;4.466;2022-10-30T05:08:54;8.55;;;3.70;;
67981;SDS011;64109;52.148;4.466;2022-10-30T05:11:20;9.63;;;4.82;;
67981;SDS011;64109;52.148;4.466;2022-10-30T05:13:46;8.68;;;5.25;;
67981;SDS011;64109;52.148;4.466;2022-10-30T05:16:12;8.23;;;4.82;;
67981;SDS011;64109;52.148;4.466;2022-10-30T05:18:38;8.10;;;5.20;;
67981;SDS011;64109;52.148;4.466;2022-10-30T05:21:04;8.60;;;6.00;;
67981;SDS011;64109;52.148;4.466;2022-10-30T05:23:30;9.27;;;4.97;;
67981;SDS011;64109;52.148;4.466;2022-10-30T05:25:56;7.13;;;3.53;;
67981;SDS011;64109;52.148;4.466;2022-10-30T05:28:24;8.75;;;4.68;;
67981;SDS011;64109;52.148;4.466;2022-10-30T05:30:51;6.97;;;4.80;;
67981;SDS011;64109;52.148;4.466;2022-10-30T05:33:17;9.38;;;4.60;;
67981;SDS011;64109;52.148;4.466;2022-10-30T05:35:43;9.00;;;3.50;;
67981;SDS011;64109;52.148;4.466;2022-10-30T05:38:10;7.20;;;4.60;;
67981;SDS011;64109;52.148;4.466;2022-10-30T05:40:36;8.10;;;4.65;;
67981;SDS011;64109;52.148;4.466;2022-10-30T05:43:02;7.03;;;4.88;;
67981;SDS011;64109;52.148;4.466;2022-10-30T05:45:29;10.70;;;4.95;;
67981;SDS011;64109;52.148;4.466;2022-10-30T05:47:56;6.93;;;4.95;;
67981;SDS011;64109;52.148;4.466;2022-10-30T05:50:22;5.32;;;3.53;;
67981;SDS011;64109;52.148;4.466;2022-10-30T05:52:48;9.35;;;4.57;;
67981;SDS011;64109;52.148;4.466;2022-10-30T05:55:14;6.50;;;3.78;;
67981;SDS011;64109;52.148;4.466;2022-10-30T05:57:40;9.45;;;4.72;;
67981;SDS011;64109;52.148;4.466;2022-10-30T06:00:06;6.65;;;4.47;;
67981;SDS011;64109;52.148;4.466;2022-10-30T06:02:32;7.85;;;5.43;;
67981;SDS011;64109;52.148;4.466;2022-10-30T06:04:58;8.25;;;4.55;;
67981;SDS011;64109;52.148;4.466;2022-10-30T06:07:24;7.50;;;4.53;;
67981;SDS011;64109;52.148;4.466;2022-10-30T06:09:50;7.78;;;4.43;;
67981;SDS011;64109;52.148;4.466;2022-10-30T06:12:16;7.22;;;4.80;;
67981;SDS011;64109;52.148;4.466;2022-10-30T06:14:42;7.82;;;4.50;;
67981;SDS011;64109;52.148;4.466;2022-10-30T06:17:08;7.55;;;5.10;;
67981;SDS011;64109;52.148;4.466;2022-10-30T06:19:34;7.15;;;4.72;;
67981;SDS011;64109;52.148;4.466;2022-10-30T06:22:00;9.05;;;4.88;;
67981;SDS011;64109;52.148;4.466;2022-10-30T06:24:26;9.60;;;4.82;;
67981;SDS011;64109;52.148;4.466;2022-10-30T06:26:52;9.02;;;4.35;;
67981;SDS011;64109;52.148;4.466;2022-10-30T06:29:18;8.35;;;5.05;;
67981;SDS011;64109;52.148;4.466;2022-10-30T06:31:44;8.73;;;5.40;;
67981;SDS011;64109;52.148;4.466;2022-10-30T06:34:09;8.77;;;5.82;;
67981;SDS011;64109;52.148;4.466;2022-10-30T06:36:35;10.25;;;5.45;;
67981;SDS011;64109;52.148;4.466;2022-10-30T06:39:01;8.00;;;5.10;;
67981;SDS011;64109;52.148;4.466;2022-10-30T06:41:27;11.10;;;4.93;;
67981;SDS011;64109;52.148;4.466;2022-10-30T06:43:53;10.07;;;5.35;;
67981;SDS011;64109;52.148;4.466;2022-10-30T06:46:19;10.93;;;5.90;;
67981;SDS011;64109;52.148;4.466;2022-10-30T06:48:45;10.75;;;4.97;;
67981;SDS011;64109;52.148;4.466;2022-10-30T06:51:12;9.45;;;4.80;;
67981;SDS011;64109;52.148;4.466;2022-10-30T06:53:39;8.40;;;4.55;;
67981;SDS011;64109;52.148;4.466;2022-10-30T06:56:05;9.07;;;5.45;;
67981;SDS011;64109;52.148;4.466;2022-10-30T06:58:31;10.30;;;5.55;;
67981;SDS011;64109;52.148;4.466;2022-10-30T07:01:02;11.15;;;5.05;;
67981;SDS011;64109;52.148;4.466;2022-10-30T07:03:29;7.18;;;5.10;;
67981;SDS011;64109;52.148;4.466;2022-10-30T07:05:55;8.48;;;4.80;;
67981;SDS011;64109;52.148;4.466;2022-10-30T07:08:20;8.63;;;4.75;;
67981;SDS011;64109;52.148;4.466;2022-10-30T07:10:47;8.90;;;5.55;;
67981;SDS011;64109;52.148;4.466;2022-10-30T07:13:12;7.82;;;4.95;;
67981;SDS011;64109;52.148;4.466;2022-10-30T07:15:38;7.55;;;4.38;;
67981;SDS011;64109;52.148;4.466;2022-10-30T07:18:04;8.77;;;5.28;;
67981;SDS011;64109;52.148;4.466;2022-10-30T07:20:31;11.45;;;5.00;;
67981;SDS011;64109;52.148;4.466;2022-10-30T07:22:58;10.25;;;4.75;;
67981;SDS011;64109;52.148;4.466;2022-10-30T07:25:24;8.60;;;5.15;;
67981;SDS011;64109;52.148;4.466;2022-10-30T07:27:51;11.18;;;4.90;;
67981;SDS011;64109;52.148;4.466;2022-10-30T07:30:18;10.95;;;5.00;;
67981;SDS011;64109;52.148;4.466;2022-10-30T07:32:44;10.27;;;5.45;;
67981;SDS011;64109;52.148;4.466;2022-10-30T07:35:11;10.13;;;6.80;;
67981;SDS011;64109;52.148;4.466;2022-10-30T07:37:37;13.02;;;7.70;;
67981;SDS011;64109;52.148;4.466;2022-10-30T07:40:04;16.75;;;8.73;;
67981;SDS011;64109;52.148;4.466;2022-10-30T07:42:31;18.10;;;11.10;;
67981;SDS011;64109;52.148;4.466;2022-10-30T07:44:57;18.10;;;12.35;;
67981;SDS011;64109;52.148;4.466;2022-10-30T07:47:23;20.70;;;14.63;;
67981;SDS011;64109;52.148;4.466;2022-10-30T07:49:48;22.90;;;14.93;;
67981;SDS011;64109;52.148;4.466;2022-10-30T07:52:14;22.45;;;14.88;;
67981;SDS011;64109;52.148;4.466;2022-10-30T07:54:40;21.77;;;14.68;;
67981;SDS011;64109;52.148;4.466;2022-10-30T07:57:06;23.55;;;17.17;;
67981;SDS011;64109;52.148;4.466;2022-10-30T07:59:32;22.98;;;17.98;;
67981;SDS011;64109;52.148;4.466;2022-10-30T08:01:59;26.60;;;17.60;;
67981;SDS011;64109;52.148;4.466;2022-10-30T08:04:25;25.30;;;17.48;;
67981;SDS011;64109;52.148;4.466;2022-10-30T08:06:51;21.60;;;16.05;;
67981;SDS011;64109;52.148;4.466;2022-10-30T08:09:17;29.85;;;20.08;;
67981;SDS011;64109;52.148;4.466;2022-10-30T08:11:43;29.27;;;19.77;;
67981;SDS011;64109;52.148;4.466;2022-10-30T08:14:09;29.50;;;19.45;;
67981;SDS011;64109;52.148;4.466;2022-10-30T08:16:35;28.13;;;20.30;;
67981;SDS011;64109;52.148;4.466;2022-10-30T08:19:01;25.45;;;18.77;;
67981;SDS011;64109;52.148;4.466;2022-10-30T08:21:27;28.13;;;19.73;;
67981;SDS011;64109;52.148;4.466;2022-10-30T08:23:53;27.08;;;19.30;;
67981;SDS011;64109;52.148;4.466;2022-10-30T08:26:19;30.40;;;21.10;;
67981;SDS011;64109;52.148;4.466;2022-10-30T08:28:45;26.77;;;20.15;;
67981;SDS011;64109;52.148;4.466;2022-10-30T08:31:11;30.23;;;19.83;;
67981;SDS011;64109;52.148;4.466;2022-10-30T08:33:37;29.40;;;20.58;;
67981;SDS011;64109;52.148;4.466;2022-10-30T08:36:04;27.67;;;19.65;;
67981;SDS011;64109;52.148;4.466;2022-10-30T08:38:31;30.98;;;19.92;;
67981;SDS011;64109;52.148;4.466;2022-10-30T08:40:57;28.88;;;20.95;;
67981;SDS011;64109;52.148;4.466;2022-10-30T08:43:23;29.17;;;19.85;;
67981;SDS011;64109;52.148;4.466;2022-10-30T08:45:50;27.48;;;19.35;;
67981;SDS011;64109;52.148;4.466;2022-10-30T08:48:16;25.55;;;16.42;;
67981;SDS011;64109;52.148;4.466;2022-10-30T08:50:42;29.55;;;20.10;;
67981;SDS011;64109;52.148;4.466;2022-10-30T08:53:12;26.88;;;19.00;;
67981;SDS011;64109;52.148;4.466;2022-10-30T08:55:39;30.98;;;19.77;;
67981;SDS011;64109;52.148;4.466;2022-10-30T08:58:05;25.92;;;18.92;;
67981;SDS011;64109;52.148;4.466;2022-10-30T09:00:31;24.40;;;18.08;;
67981;SDS011;64109;52.148;4.466;2022-10-30T09:02:58;24.45;;;18.55;;
67981;SDS011;64109;52.148;4.466;2022-10-30T09:05:24;23.60;;;16.00;;
67981;SDS011;64109;52.148;4.466;2022-10-30T09:07:54;27.65;;;19.23;;
67981;SDS011;64109;52.148;4.466;2022-10-30T09:10:20;24.05;;;15.55;;
67981;SDS011;64109;52.148;4.466;2022-10-30T09:12:46;23.73;;;17.98;;
67981;SDS011;64109;52.148;4.466;2022-10-30T09:15:12;26.23;;;17.60;;
67981;SDS011;64109;52.148;4.466;2022-10-30T09:17:38;24.85;;;18.48;;
67981;SDS011;64109;52.148;4.466;2022-10-30T09:20:04;22.98;;;15.45;;
67981;SDS011;64109;52.148;4.466;2022-10-30T09:22:30;24.40;;;17.83;;
67981;SDS011;64109;52.148;4.466;2022-10-30T09:24:56;21.73;;;16.80;;
67981;SDS011;64109;52.148;4.466;2022-10-30T09:27:22;23.00;;;16.52;;
67981;SDS011;64109;52.148;4.466;2022-10-30T09:29:48;22.90;;;16.02;;
67981;SDS011;64109;52.148;4.466;2022-10-30T09:32:14;23.50;;;15.82;;
67981;SDS011;64109;52.148;4.466;2022-10-30T09:34:40;25.15;;;17.63;;
67981;SDS011;64109;52.148;4.466;2022-10-30T09:37:06;21.60;;;15.95;;
67981;SDS011;64109;52.148;4.466;2022-10-30T09:39:32;21.95;;;16.15;;
67981;SDS011;64109;52.148;4.466;2022-10-30T09:42:12;21.63;;;15.82;;
67981;SDS011;64109;52.148;4.466;2022-10-30T09:44:52;21.10;;;15.23;;
67981;SDS011;64109;52.148;4.466;2022-10-30T09:52:34;21.25;;;15.43;;
67981;SDS011;64109;52.148;4.466;2022-10-30T10:04:56;22.70;;;14.90;;
67981;SDS011;64109;52.148;4.466;2022-10-30T10:09:49;18.00;;;12.90;;
67981;SDS011;64109;52.148;4.466;2022-10-30T10:12:22;23.70;;;15.45;;
67981;SDS011;64109;52.148;4.466;2022-10-30T10:14:50;20.88;;;14.48;;
67981;SDS011;64109;52.148;4.466;2022-10-30T10:17:19;19.75;;;13.85;;
67981;SDS011;64109;52.148;4.466;2022-10-30T10:19:52;20.02;;;13.63;;
67981;SDS011;64109;52.148;4.466;2022-10-30T10:22:32;18.83;;;14.02;;
67981;SDS011;64109;52.148;4.466;2022-10-30T10:25:01;22.85;;;15.02;;
67981;SDS011;64109;52.148;4.466;2022-10-30T10:30:44;18.42;;;13.27;;
67981;SDS011;64109;52.148;4.466;2022-10-30T10:37:56;21.95;;;13.55;;
67981;SDS011;64109;52.148;4.466;2022-10-30T10:40:51;20.35;;;10.82;;
67981;SDS011;64109;52.148;4.466;2022-10-30T10:43:17;21.77;;;12.75;;
67981;SDS011;64109;52.148;4.466;2022-10-30T10:45:59;20.90;;;13.88;;
67981;SDS011;64109;52.148;4.466;2022-10-30T10:48:35;18.25;;;13.48;;
67981;SDS011;64109;52.148;4.466;2022-10-30T10:51:05;20.55;;;12.43;;
67981;SDS011;64109;52.148;4.466;2022-10-30T10:53:41;16.45;;;12.27;;
67981;SDS011;64109;52.148;4.466;2022-10-30T10:56:09;19.25;;;12.55;;
67981;SDS011;64109;52.148;4.466;2022-10-30T10:58:42;18.70;;;12.63;;
67981;SDS011;64109;52.148;4.466;2022-10-30T11:01:13;19.38;;;12.20;;
67981;SDS011;64109;52.148;4.466;2022-10-30T11:03:56;16.50;;;11.45;;
67981;SDS011;64109;52.148;4.466;2022-10-30T11:06:26;17.92;;;11.98;;
67981;SDS011;64109;52.148;4.466;2022-10-30T11:08:55;17.98;;;10.48;;
67981;SDS011;64109;52.148;4.466;2022-10-30T11:11:25;18.27;;;10.07;;
67981;SDS011;64109;52.148;4.466;2022-10-30T11:13:51;18.70;;;12.43;;
67981;SDS011;64109;52.148;4.466;2022-10-30T11:18:58;15.27;;;10.07;;
67981;SDS011;64109;52.148;4.466;2022-10-30T11:21:25;17.15;;;9.50;;
67981;SDS011;64109;52.148;4.466;2022-10-30T11:23:51;16.27;;;11.25;;
67981;SDS011;64109;52.148;4.466;2022-10-30T11:31:16;17.00;;;9.85;;
67981;SDS011;64109;52.148;4.466;2022-10-30T11:33:42;19.00;;;10.77;;
67981;SDS011;64109;52.148;4.466;2022-10-30T11:36:09;13.88;;;9.30;;
67981;SDS011;64109;52.148;4.466;2022-10-30T11:38:35;16.65;;;11.65;;
67981;SDS011;64109;52.148;4.466;2022-10-30T11:41:01;16.13;;;10.13;;
67981;SDS011;64109;52.148;4.466;2022-10-30T11:43:27;17.75;;;11.60;;
67981;SDS011;64109;52.148;4.466;2022-10-30T11:45:53;18.42;;;11.23;;
67981;SDS011;64109;52.148;4.466;2022-10-30T11:50:46;14.68;;;9.77;;
67981;SDS011;64109;52.148;4.466;2022-10-30T11:53:16;14.52;;;9.05;;
67981;SDS011;64109;52.148;4.466;2022-10-30T11:55:45;14.75;;;8.57;;
67981;SDS011;64109;52.148;4.466;2022-10-30T11:58:23;16.88;;;9.98;;
67981;SDS011;64109;52.148;4.466;2022-10-30T12:00:58;15.75;;;10.10;;
67981;SDS011;64109;52.148;4.466;2022-10-30T12:03:29;14.05;;;9.65;;
67981;SDS011;64109;52.148;4.466;2022-10-30T12:06:17;15.10;;;10.10;;
67981;SDS011;64109;52.148;4.466;2022-10-30T12:11:31;13.57;;;8.23;;
67981;SDS011;64109;52.148;4.466;2022-10-30T12:13:58;15.10;;;10.32;;
67981;SDS011;64109;52.148;4.466;2022-10-30T12:16:24;13.07;;;9.63;;
67981;SDS011;64109;52.148;4.466;2022-10-30T12:18:51;15.20;;;9.65;;
67981;SDS011;64109;52.148;4.466;2022-10-30T12:21:20;13.13;;;9.52;;
67981;SDS011;64109;52.148;4.466;2022-10-30T12:23:50;15.40;;;9.63;;
67981;SDS011;64109;52.148;4.466;2022-10-30T12:26:18;13.10;;;10.57;;
67981;SDS011;64109;52.148;4.466;2022-10-30T12:28:51;17.23;;;9.63;;
67981;SDS011;64109;52.148;4.466;2022-10-30T12:31:20;16.73;;;10.02;;
67981;SDS011;64109;52.148;4.466;2022-10-30T12:34:30;14.80;;;9.18;;
67981;SDS011;64109;52.148;4.466;2022-10-30T12:36:41;11.75;;;8.55;;
67981;SDS011;64109;52.148;4.466;2022-10-30T12:39:23;12.63;;;8.52;;
67981;SDS011;64109;52.148;4.466;2022-10-30T12:42:04;13.95;;;9.35;;
67981;SDS011;64109;52.148;4.466;2022-10-30T12:44:35;11.05;;;8.15;;
67981;SDS011;64109;52.148;4.466;2022-10-30T12:49:51;14.85;;;9.05;;
67981;SDS011;64109;52.148;4.466;2022-10-30T12:52:24;14.27;;;8.82;;
67981;SDS011;64109;52.148;4.466;2022-10-30T12:57:37;13.52;;;7.93;;
67981;SDS011;64109;52.148;4.466;2022-10-30T13:02:39;13.27;;;8.98;;
67981;SDS011;64109;52.148;4.466;2022-10-30T13:05:12;13.00;;;8.52;;
67981;SDS011;64109;52.148;4.466;2022-10-30T13:07:43;12.05;;;8.13;;
67981;SDS011;64109;52.148;4.466;2022-10-30T13:12:56;10.70;;;7.45;;
67981;SDS011;64109;52.148;4.466;2022-10-30T13:15:27;10.35;;;7.45;;
67981;SDS011;64109;52.148;4.466;2022-10-30T13:17:57;12.38;;;8.32;;
67981;SDS011;64109;52.148;4.466;2022-10-30T13:20:23;10.27;;;7.80;;
67981;SDS011;64109;52.148;4.466;2022-10-30T13:25:28;11.23;;;7.93;;
67981;SDS011;64109;52.148;4.466;2022-10-30T13:27:59;11.15;;;7.97;;
67981;SDS011;64109;52.148;4.466;2022-10-30T13:30:29;12.98;;;8.27;;
67981;SDS011;64109;52.148;4.466;2022-10-30T13:33:05;12.60;;;8.45;;
67981;SDS011;64109;52.148;4.466;2022-10-30T13:35:34;10.57;;;7.65;;
67981;SDS011;64109;52.148;4.466;2022-10-30T13:38:20;11.25;;;7.93;;
67981;SDS011;64109;52.148;4.466;2022-10-30T13:40:51;12.27;;;7.45;;
67981;SDS011;64109;52.148;4.466;2022-10-30T13:51:10;8.95;;;6.93;;
67981;SDS011;64109;52.148;4.466;2022-10-30T13:53:38;8.63;;;5.60;;
67981;SDS011;64109;52.148;4.466;2022-10-30T13:56:09;11.88;;;7.47;;
67981;SDS011;64109;52.148;4.466;2022-10-30T13:58:40;9.45;;;7.38;;
67981;SDS011;64109;52.148;4.466;2022-10-30T14:01:20;9.13;;;7.20;;
67981;SDS011;64109;52.148;4.466;2022-10-30T14:11:15;9.18;;;7.57;;
67981;SDS011;64109;52.148;4.466;2022-10-30T14:13:57;9.50;;;7.13;;
67981;SDS011;64109;52.148;4.466;2022-10-30T14:19:04;8.13;;;5.20;;
67981;SDS011;64109;52.148;4.466;2022-10-30T14:31:54;9.48;;;6.50;;
67981;SDS011;64109;52.148;4.466;2022-10-30T14:34:39;9.20;;;6.72;;
67981;SDS011;64109;52.148;4.466;2022-10-30T14:37:06;7.20;;;5.85;;
67981;SDS011;64109;52.148;4.466;2022-10-30T14:44:48;7.65;;;5.95;;
67981;SDS011;64109;52.148;4.466;2022-10-30T14:49:45;7.80;;;6.40;;
67981;SDS011;64109;52.148;4.466;2022-10-30T14:54:40;7.75;;;6.00;;
67981;SDS011;64109;52.148;4.466;2022-10-30T14:57:24;7.10;;;6.18;;
67981;SDS011;64109;52.148;4.466;2022-10-30T15:00:41;6.93;;;5.55;;
67981;SDS011;64109;52.148;4.466;2022-10-30T15:05:50;9.50;;;6.57;;
67981;SDS011;64109;52.148;4.466;2022-10-30T15:08:25;7.85;;;6.00;;
67981;SDS011;64109;52.148;4.466;2022-10-30T15:13:25;7.72;;;6.20;;
67981;SDS011;64109;52.148;4.466;2022-10-30T15:15:57;7.68;;;5.80;;
67981;SDS011;64109;52.148;4.466;2022-10-30T15:18:24;7.97;;;6.53;;
67981;SDS011;64109;52.148;4.466;2022-10-30T15:20:51;8.43;;;5.57;;
67981;SDS011;64109;52.148;4.466;2022-10-30T15:23:26;7.15;;;5.50;;
67981;SDS011;64109;52.148;4.466;2022-10-30T15:25:54;8.45;;;6.07;;
67981;SDS011;64109;52.148;4.466;2022-10-30T15:28:22;6.80;;;5.72;;
67981;SDS011;64109;52.148;4.466;2022-10-30T15:33:25;6.43;;;5.40;;
67981;SDS011;64109;52.148;4.466;2022-10-30T15:35:51;9.48;;;5.85;;
67981;SDS011;64109;52.148;4.466;2022-10-30T15:38:17;6.40;;;5.80;;
67981;SDS011;64109;52.148;4.466;2022-10-30T15:40:43;6.32;;;5.30;;
67981;SDS011;64109;52.148;4.466;2022-10-30T15:43:10;7.35;;;5.03;;
67981;SDS011;64109;52.148;4.466;2022-10-30T15:45:41;6.65;;;5.85;;
67981;SDS011;64109;52.148;4.466;2022-10-30T15:48:21;7.03;;;5.53;;
67981;SDS011;64109;52.148;4.466;2022-10-30T15:51:10;7.65;;;5.82;;
67981;SDS011;64109;52.148;4.466;2022-10-30T15:56:03;6.88;;;5.25;;
67981;SDS011;64109;52.148;4.466;2022-10-30T15:58:29;7.82;;;5.32;;
67981;SDS011;64109;52.148;4.466;2022-10-30T16:00:58;6.80;;;4.80;;
67981;SDS011;64109;52.148;4.466;2022-10-30T16:03:24;6.22;;;5.40;;
67981;SDS011;64109;52.148;4.466;2022-10-30T16:05:51;5.78;;;4.95;;
67981;SDS011;64109;52.148;4.466;2022-10-30T16:08:27;7.18;;;6.07;;
67981;SDS011;64109;52.148;4.466;2022-10-30T16:10:53;6.90;;;5.05;;
67981;SDS011;64109;52.148;4.466;2022-10-30T16:13:21;8.48;;;5.45;;
67981;SDS011;64109;52.148;4.466;2022-10-30T16:15:48;6.13;;;4.88;;
67981;SDS011;64109;52.148;4.466;2022-10-30T16:18:18;6.07;;;4.80;;
67981;SDS011;64109;52.148;4.466;2022-10-30T16:20:47;5.88;;;5.28;;
67981;SDS011;64109;52.148;4.466;2022-10-30T16:23:15;6.32;;;5.38;;
67981;SDS011;64109;52.148;4.466;2022-10-30T16:25:41;7.40;;;5.22;;
67981;SDS011;64109;52.148;4.466;2022-10-30T16:28:28;6.20;;;4.80;;
67981;SDS011;64109;52.148;4.466;2022-10-30T16:30:55;7.32;;;6.00;;
67981;SDS011;64109;52.148;4.466;2022-10-30T16:33:23;6.53;;;4.90;;
67981;SDS011;64109;52.148;4.466;2022-10-30T16:35:50;5.72;;;3.60;;
67981;SDS011;64109;52.148;4.466;2022-10-30T16:38:17;5.55;;;3.85;;
67981;SDS011;64109;52.148;4.466;2022-10-30T16:40:43;6.18;;;5.18;;
67981;SDS011;64109;52.148;4.466;2022-10-30T16:48:59;5.93;;;5.00;;
67981;SDS011;64109;52.148;4.466;2022-10-30T16:51:26;6.35;;;4.50;;